PLI422 SPHY-SPJC
Flight info
| Callsign | PLI422 |
|---|---|
| Flight time | N/A |
| Altitude | 38000 |
| Route | AND UT333 PALUK UM415 ASOXI |
| Aircraft | B721/M-SDFGHRWY/C |
Departure
| Time | 2026-05-07 00:44 |
|---|---|
| Airport | Andahuaylas Airport (SPHY) |
Arrival
| Time | N/A |
|---|---|
| Airport | Jorge Chávez International Airport (SPJC) |
| Time | Latitude | Longitude | Altitude | Speed | Heading |
|---|---|---|---|---|---|
| 2026-05-07 00:16 | -13.71255 | -73.35264 | 11655 ft | 0 kts | 170° |
| 2026-05-07 00:40 | -13.71256 | -73.35264 | 11655 ft | 0 kts | 170° |
| 2026-05-07 00:40 | -13.71259 | -73.35263 | 11655 ft | 1 kts | 176° |
| 2026-05-07 00:40 | -13.71260 | -73.35273 | 11655 ft | 1 kts | 316° |
| 2026-05-07 00:40 | -13.71250 | -73.35283 | 11655 ft | 3 kts | 317° |
| 2026-05-07 00:41 | -13.71227 | -73.35305 | 11655 ft | 5 kts | 311° |
| 2026-05-07 00:41 | -13.71231 | -73.35358 | 11654 ft | 13 kts | 226° |
| 2026-05-07 00:41 | -13.71365 | -73.35448 | 11652 ft | 29 kts | 211° |
| 2026-05-07 00:41 | -13.71544 | -73.35563 | 11647 ft | 29 kts | 211° |
| 2026-05-07 00:42 | -13.71713 | -73.35687 | 11643 ft | 28 kts | 214° |
| 2026-05-07 00:42 | -13.71820 | -73.35751 | 11641 ft | 2 kts | 150° |
| 2026-05-07 00:42 | -13.71811 | -73.35731 | 11641 ft | 3 kts | 30° |
| 2026-05-07 00:42 | -13.71809 | -73.35731 | 11641 ft | 0 kts | 30° |
| 2026-05-07 00:43 | -13.71801 | -73.35725 | 11641 ft | 13 kts | 30° |
| 2026-05-07 00:43 | -13.71525 | -73.35552 | 11648 ft | 75 kts | 33° |
| 2026-05-07 00:43 | -13.70923 | -73.35162 | 11660 ft | 126 kts | 29° |
| 2026-05-07 00:43 | -13.70033 | -73.34601 | 11709 ft | 162 kts | 31° |
| 2026-05-07 00:44 | -13.69064 | -73.33969 | 12069 ft | 156 kts | 32° |
| 2026-05-07 00:44 | -13.68077 | -73.33331 | 12156 ft | 170 kts | 32° |
| 2026-05-07 00:44 | -13.67065 | -73.32685 | 12466 ft | 167 kts | 32° |
| 2026-05-07 00:44 | -13.66059 | -73.32046 | 12797 ft | 163 kts | 32° |
| 2026-05-07 00:45 | -13.65086 | -73.31422 | 13118 ft | 158 kts | 31° |
| 2026-05-07 00:45 | -13.64140 | -73.30830 | 13395 ft | 155 kts | 31° |
| 2026-05-07 00:45 | -13.63198 | -73.30241 | 13654 ft | 153 kts | 31° |
| 2026-05-07 00:45 | -13.62261 | -73.29658 | 13824 ft | 156 kts | 31° |
| 2026-05-07 00:46 | -13.61288 | -73.29051 | 13945 ft | 165 kts | 31° |
| 2026-05-07 00:46 | -13.60229 | -73.28391 | 13901 ft | 183 kts | 31° |
| 2026-05-07 00:46 | -13.59065 | -73.27666 | 13889 ft | 198 kts | 31° |
| 2026-05-07 00:46 | -13.57797 | -73.26878 | 13892 ft | 210 kts | 31° |
| 2026-05-07 00:47 | -13.56488 | -73.26063 | 13905 ft | 220 kts | 31° |
| 2026-05-07 00:47 | -13.55117 | -73.25210 | 13921 ft | 228 kts | 31° |
| 2026-05-07 00:47 | -13.53690 | -73.24322 | 13963 ft | 233 kts | 31° |
| 2026-05-07 00:47 | -13.52253 | -73.23430 | 14009 ft | 238 kts | 31° |
| 2026-05-07 00:48 | -13.50776 | -73.22512 | 14162 ft | 244 kts | 31° |
| 2026-05-07 00:48 | -13.49272 | -73.21579 | 14332 ft | 249 kts | 31° |
| 2026-05-07 00:48 | -13.47738 | -73.20627 | 14505 ft | 253 kts | 31° |
| 2026-05-07 00:48 | -13.46142 | -73.19722 | 14692 ft | 255 kts | 19° |
| 2026-05-07 00:49 | -13.44365 | -73.19659 | 14855 ft | 254 kts | 345° |
| 2026-05-07 00:49 | -13.42732 | -73.20429 | 15069 ft | 254 kts | 329° |
| 2026-05-07 00:49 | -13.41188 | -73.21478 | 15380 ft | 258 kts | 324° |
| 2026-05-07 00:49 | -13.39793 | -73.22681 | 15750 ft | 258 kts | 307° |
| 2026-05-07 00:50 | -13.38987 | -73.24363 | 16125 ft | 258 kts | 289° |
| 2026-05-07 00:50 | -13.38424 | -73.26193 | 16509 ft | 259 kts | 286° |
| 2026-05-07 00:50 | -13.37927 | -73.28011 | 16856 ft | 260 kts | 285° |
| 2026-05-07 00:50 | -13.37435 | -73.29864 | 17186 ft | 262 kts | 285° |
| 2026-05-07 00:51 | -13.36974 | -73.31747 | 17497 ft | 264 kts | 277° |
| 2026-05-07 00:51 | -13.36944 | -73.33669 | 17794 ft | 265 kts | 267° |
| 2026-05-07 00:51 | -13.37087 | -73.35609 | 18102 ft | 266 kts | 265° |
| 2026-05-07 00:51 | -13.37267 | -73.37550 | 18402 ft | 267 kts | 264° |
| 2026-05-07 00:52 | -13.37457 | -73.39497 | 18691 ft | 268 kts | 264° |
| 2026-05-07 00:52 | -13.37703 | -73.41467 | 18957 ft | 270 kts | 257° |
| 2026-05-07 00:52 | -13.38228 | -73.43410 | 19271 ft | 280 kts | 252° |
| 2026-05-07 00:52 | -13.38851 | -73.45386 | 19708 ft | 285 kts | 251° |
| 2026-05-07 00:53 | -13.39494 | -73.47360 | 20233 ft | 286 kts | 251° |
| 2026-05-07 00:53 | -13.40143 | -73.49335 | 20782 ft | 285 kts | 251° |
| 2026-05-07 00:53 | -13.40794 | -73.51314 | 21290 ft | 286 kts | 251° |
| 2026-05-07 00:53 | -13.41443 | -73.53289 | 21741 ft | 288 kts | 251° |
| 2026-05-07 00:54 | -13.42102 | -73.55298 | 22169 ft | 290 kts | 251° |
| 2026-05-07 00:54 | -13.42768 | -73.57327 | 22600 ft | 292 kts | 251° |
| 2026-05-07 00:54 | -13.43433 | -73.59358 | 23030 ft | 293 kts | 251° |
| 2026-05-07 00:54 | -13.44095 | -73.61384 | 23454 ft | 294 kts | 251° |
| 2026-05-07 00:55 | -13.44768 | -73.63449 | 23878 ft | 294 kts | 251° |
| 2026-05-07 00:55 | -13.45428 | -73.65489 | 24288 ft | 295 kts | 252° |
| 2026-05-07 00:55 | -13.46081 | -73.67520 | 24681 ft | 291 kts | 252° |
| 2026-05-07 00:55 | -13.46711 | -73.69495 | 25030 ft | 290 kts | 252° |
| 2026-05-07 00:56 | -13.47352 | -73.71515 | 25379 ft | 288 kts | 252° |
| 2026-05-07 00:56 | -13.47988 | -73.73523 | 25701 ft | 288 kts | 252° |
| 2026-05-07 00:56 | -13.48029 | -73.73652 | 25721 ft | 289 kts | 252° |
| 2026-05-07 00:56 | -13.48138 | -73.73994 | 25776 ft | 289 kts | 252° |
| 2026-05-07 00:57 | -13.48776 | -73.76000 | 26096 ft | 290 kts | 252° |
| 2026-05-07 00:57 | -13.49434 | -73.78048 | 26418 ft | 291 kts | 253° |
| 2026-05-07 00:57 | -13.50089 | -73.80063 | 26729 ft | 292 kts | 253° |
| 2026-05-07 00:57 | -13.50752 | -73.82076 | 27031 ft | 292 kts | 253° |
| 2026-05-07 00:58 | -13.51353 | -73.83871 | 27296 ft | 293 kts | 253° |
| 2026-05-07 00:58 | -13.51828 | -73.85268 | 27497 ft | 293 kts | 253° |
| 2026-05-07 00:58 | -13.52532 | -73.87296 | 27783 ft | 294 kts | 253° |
| 2026-05-07 00:58 | -13.53255 | -73.89324 | 28062 ft | 294 kts | 254° |
| 2026-05-07 00:59 | -13.54752 | -73.93348 | 28600 ft | 295 kts | 254° |
| 2026-05-07 00:59 | -13.55534 | -73.95362 | 28863 ft | 295 kts | 253° |
| 2026-05-07 00:59 | -13.56336 | -73.97369 | 29120 ft | 295 kts | 252° |
| 2026-05-07 01:00 | -13.57156 | -73.99359 | 29369 ft | 295 kts | 252° |
| 2026-05-07 01:00 | -13.57991 | -74.01324 | 29607 ft | 295 kts | 251° |
| 2026-05-07 01:00 | -13.58854 | -74.03287 | 29838 ft | 296 kts | 250° |
| 2026-05-07 01:00 | -13.59711 | -74.05173 | 30055 ft | 296 kts | 249° |
| 2026-05-07 01:01 | -13.60633 | -74.07130 | 30273 ft | 296 kts | 247° |
| 2026-05-07 01:01 | -13.61580 | -74.09064 | 30483 ft | 296 kts | 246° |
| 2026-05-07 01:01 | -13.62559 | -74.10985 | 30687 ft | 296 kts | 245° |
| 2026-05-07 01:01 | -13.63567 | -74.12877 | 30882 ft | 296 kts | 244° |
| 2026-05-07 01:02 | -13.64619 | -74.14764 | 31070 ft | 296 kts | 242° |
| 2026-05-07 01:02 | -13.65711 | -74.16626 | 31250 ft | 297 kts | 241° |
| 2026-05-07 01:02 | -13.66833 | -74.18443 | 31421 ft | 297 kts | 240° |
| 2026-05-07 01:02 | -13.68021 | -74.20264 | 31588 ft | 298 kts | 239° |
| 2026-05-07 01:03 | -13.69207 | -74.21984 | 31742 ft | 298 kts | 238° |